createdAt,value
2019-03-06T00:00:39.729Z,3.44
2019-03-06T00:01:39.720Z,3.56
2019-03-06T00:02:39.715Z,3.66
2019-03-06T00:03:39.705Z,3.69
2019-03-06T00:04:39.699Z,3.66
2019-03-06T00:05:39.690Z,3.66
2019-03-06T00:06:39.682Z,3.66
2019-03-06T00:07:39.675Z,3.74
2019-03-06T00:08:39.712Z,3.77
2019-03-06T00:09:39.660Z,3.73
2019-03-06T00:10:39.652Z,3.84
2019-03-06T00:11:39.642Z,3.80
2019-03-06T00:12:39.636Z,3.86
2019-03-06T00:13:39.627Z,3.81
2019-03-06T00:14:39.621Z,3.83
2019-03-06T00:15:39.613Z,3.84
2019-03-06T00:16:39.605Z,3.83
2019-03-06T00:17:39.598Z,3.86
2019-03-06T00:18:39.590Z,3.83
2019-03-06T00:19:39.581Z,3.94
2019-03-06T00:20:39.577Z,3.87
2019-03-06T00:21:39.567Z,3.95
2019-03-06T00:22:39.559Z,3.94
2019-03-06T00:23:39.551Z,3.95
2019-03-06T00:24:39.544Z,3.95
2019-03-06T00:25:39.537Z,3.94
2019-03-06T00:26:39.531Z,3.95
2019-03-06T00:27:39.521Z,3.99
2019-03-06T00:28:39.513Z,3.92
2019-03-06T00:29:39.505Z,3.96
2019-03-06T00:30:39.498Z,3.98
2019-03-06T00:31:39.489Z,3.95
2019-03-06T00:32:39.482Z,3.98
2019-03-06T00:33:39.475Z,3.94
2019-03-06T00:34:39.468Z,3.95
2019-03-06T00:35:39.459Z,4.01
2019-03-06T00:36:39.452Z,4.05
2019-03-06T00:37:39.444Z,4.12
2019-03-06T00:38:39.439Z,4.05
2019-03-06T00:39:39.430Z,3.98
2019-03-06T00:40:39.475Z,3.99
2019-03-06T00:41:39.415Z,4.04
2019-03-06T00:42:39.409Z,4.10
2019-03-06T00:43:39.400Z,4.04
2019-03-06T00:44:39.391Z,4.10
2019-03-06T00:45:39.386Z,3.98
2019-03-06T00:46:39.378Z,4.12
2019-03-06T00:47:39.370Z,4.08
2019-03-06T00:48:39.362Z,4.05
2019-03-06T00:49:39.353Z,4.01
2019-03-06T00:50:39.346Z,4.10
2019-03-06T00:51:39.339Z,4.13
2019-03-06T00:52:39.332Z,4.16
2019-03-06T00:53:39.324Z,4.24
2019-03-06T00:54:39.316Z,4.20
2019-03-06T00:55:39.309Z,4.20
2019-03-06T00:56:39.302Z,4.30
2019-03-06T00:57:39.295Z,4.30
2019-03-06T00:58:39.287Z,4.31
2019-03-06T00:59:39.278Z,4.35
2019-03-06T01:00:39.272Z,4.41
2019-03-06T01:01:39.264Z,4.38
2019-03-06T01:02:39.256Z,4.38
2019-03-06T01:03:39.248Z,4.37
2019-03-06T01:04:39.243Z,4.40
2019-03-06T01:05:39.235Z,4.40
2019-03-06T01:06:39.226Z,4.50
2019-03-06T01:07:39.219Z,4.50
2019-03-06T01:08:39.213Z,4.53
2019-03-06T01:09:39.205Z,4.56
2019-03-06T01:10:39.196Z,4.55
2019-03-06T01:11:39.189Z,4.56
2019-03-06T01:12:39.242Z,4.60
2019-03-06T01:13:39.176Z,4.63
2019-03-06T01:14:39.169Z,4.70
2019-03-06T01:15:39.159Z,4.67
2019-03-06T01:16:39.152Z,4.63
2019-03-06T01:17:39.146Z,4.71
2019-03-06T01:18:39.139Z,4.68
2019-03-06T01:19:39.131Z,4.80
2019-03-06T01:20:39.123Z,4.73
2019-03-06T01:21:39.116Z,4.82
2019-03-06T01:22:39.109Z,4.89
2019-03-06T01:23:39.101Z,4.97
2019-03-06T01:24:39.095Z,5.05
2019-03-06T01:25:39.089Z,5.00
2019-03-06T01:26:39.081Z,5.10
2019-03-06T01:27:39.111Z,5.08
2019-03-06T01:28:39.065Z,5.14
2019-03-06T01:29:39.059Z,5.17
2019-03-06T01:30:39.052Z,5.14
2019-03-06T01:31:39.043Z,5.32
2019-03-06T01:32:39.036Z,5.26
2019-03-06T01:33:39.030Z,5.28
2019-03-06T01:34:39.023Z,5.32
2019-03-06T01:35:39.015Z,5.36
2019-03-06T01:36:39.012Z,5.35
2019-03-06T01:37:39.001Z,5.39
2019-03-06T01:38:38.995Z,5.38
2019-03-06T01:39:38.986Z,5.35
2019-03-06T01:40:38.979Z,5.36
2019-03-06T01:41:38.975Z,5.41
2019-03-06T01:42:38.968Z,5.35
2019-03-06T01:43:38.958Z,5.36
2019-03-06T01:44:38.951Z,5.36
2019-03-06T01:45:38.943Z,5.39
2019-03-06T01:46:38.937Z,5.47
2019-03-06T01:47:38.931Z,5.56
2019-03-06T01:48:38.928Z,5.59
2019-03-06T01:49:38.917Z,5.65
2019-03-06T01:50:38.910Z,5.65
2019-03-06T01:51:38.901Z,5.61
2019-03-06T01:52:38.895Z,5.69
2019-03-06T01:53:38.889Z,5.72
2019-03-06T01:54:38.881Z,5.66
2019-03-06T01:55:38.873Z,5.76
2019-03-06T01:56:38.866Z,5.76
2019-03-06T01:57:38.860Z,5.79
2019-03-06T01:58:38.853Z,5.86
2019-03-06T01:59:38.845Z,5.84
2019-03-06T02:00:38.840Z,5.82
2019-03-06T02:01:38.832Z,5.90
2019-03-06T02:02:38.825Z,5.82
2019-03-06T02:03:39.043Z,5.80
2019-03-06T02:04:38.812Z,5.91
2019-03-06T02:05:38.805Z,5.89
2019-03-06T02:06:38.796Z,5.84
2019-03-06T02:07:38.791Z,5.84
2019-03-06T02:08:38.782Z,5.90
2019-03-06T02:09:38.777Z,5.89
2019-03-06T02:10:38.771Z,5.89
2019-03-06T02:11:38.761Z,5.90
2019-03-06T02:12:38.755Z,5.93
2019-03-06T02:13:38.748Z,5.86
2019-03-06T02:14:38.742Z,5.90
2019-03-06T02:15:38.735Z,5.93
2019-03-06T02:16:38.728Z,5.90
2019-03-06T02:17:38.721Z,5.91
2019-03-06T02:18:38.741Z,5.91
2019-03-06T02:19:38.706Z,5.79
2019-03-06T02:20:38.701Z,5.93
2019-03-06T02:21:38.747Z,5.90
2019-03-06T02:22:38.686Z,5.94
2019-03-06T02:23:38.680Z,5.98
2019-03-06T02:24:38.673Z,5.99
2019-03-06T02:25:38.667Z,5.99
2019-03-06T02:26:38.660Z,5.99
2019-03-06T02:27:38.653Z,5.97
2019-03-06T02:28:38.646Z,5.99
2019-03-06T02:29:38.639Z,5.98
2019-03-06T02:30:38.634Z,5.98
2019-03-06T02:31:38.624Z,6.02
2019-03-06T02:32:38.617Z,5.99
2019-03-06T02:33:38.611Z,6.01
2019-03-06T02:34:38.607Z,6.07
2019-03-06T02:35:38.606Z,6.12
2019-03-06T02:36:38.593Z,6.16
2019-03-06T02:37:38.587Z,6.09
2019-03-06T02:38:38.581Z,6.02
2019-03-06T02:39:38.571Z,6.19
2019-03-06T02:40:38.565Z,6.14
2019-03-06T02:41:38.560Z,6.11
2019-03-06T02:42:38.562Z,6.14
2019-03-06T02:43:38.544Z,6.20
2019-03-06T02:44:40.050Z,6.12
2019-03-06T02:45:38.531Z,6.12
2019-03-06T02:46:38.525Z,6.20
2019-03-06T02:47:38.517Z,6.17
2019-03-06T02:48:38.512Z,6.27
2019-03-06T02:49:38.506Z,6.20
2019-03-06T02:50:38.498Z,6.20
2019-03-06T02:51:38.491Z,6.19
2019-03-06T02:52:38.484Z,6.20
2019-03-06T02:53:38.482Z,6.17
2019-03-06T02:54:38.489Z,6.19
2019-03-06T02:55:38.464Z,6.24
2019-03-06T02:56:38.458Z,6.27
2019-03-06T02:57:38.453Z,6.28
2019-03-06T02:58:38.444Z,6.17
2019-03-06T02:59:38.437Z,6.24
2019-03-06T03:00:38.491Z,6.19
2019-03-06T03:01:38.426Z,6.20
2019-03-06T03:02:38.419Z,6.22
2019-03-06T03:03:38.411Z,6.28
2019-03-06T03:04:38.405Z,6.31
2019-03-06T03:05:38.399Z,6.26
2019-03-06T03:06:38.392Z,6.33
2019-03-06T03:07:38.386Z,6.30
2019-03-06T03:08:38.383Z,6.28
2019-03-06T03:09:38.371Z,6.26
2019-03-06T03:10:38.367Z,6.27
2019-03-06T03:11:38.360Z,6.20
2019-03-06T03:12:38.351Z,6.28
2019-03-06T03:13:38.346Z,6.28
2019-03-06T03:14:38.343Z,6.28
2019-03-06T03:15:38.331Z,6.24
2019-03-06T03:16:38.327Z,6.24
2019-03-06T03:17:38.321Z,6.31
2019-03-06T03:18:38.312Z,6.28
2019-03-06T03:19:38.307Z,6.27
2019-03-06T03:20:38.298Z,6.22
2019-03-06T03:21:38.294Z,6.30
2019-03-06T03:22:38.286Z,6.30
2019-03-06T03:23:38.278Z,6.28
2019-03-06T03:24:38.273Z,6.28
2019-03-06T03:25:38.266Z,6.27
2019-03-06T03:26:38.261Z,6.27
2019-03-06T03:27:38.252Z,6.28
2019-03-06T03:28:38.252Z,6.26
2019-03-06T03:29:38.239Z,6.33
2019-03-06T03:30:38.254Z,6.28
2019-03-06T03:31:38.226Z,6.26
2019-03-06T03:32:38.220Z,6.24
2019-03-06T03:33:38.215Z,6.27
2019-03-06T03:34:38.221Z,6.27
2019-03-06T03:35:38.198Z,6.27
2019-03-06T03:36:38.195Z,6.24
2019-03-06T03:37:38.184Z,6.30
2019-03-06T03:38:38.179Z,6.28
2019-03-06T03:39:38.174Z,6.27
2019-03-06T03:40:38.176Z,6.30
2019-03-06T03:41:38.161Z,6.30
2019-03-06T03:42:38.153Z,6.20
2019-03-06T03:43:38.148Z,6.22
2019-03-06T03:44:38.140Z,6.27
2019-03-06T03:45:38.131Z,6.30
2019-03-06T03:46:38.125Z,6.20
2019-03-06T03:47:38.119Z,6.31
2019-03-06T03:48:38.113Z,6.19
2019-03-06T03:49:38.107Z,6.19
2019-03-06T03:50:38.100Z,6.27
2019-03-06T03:51:38.093Z,6.24
2019-03-06T03:52:38.086Z,6.27
2019-03-06T03:53:38.080Z,6.30
2019-03-06T03:54:38.072Z,6.30
2019-03-06T03:55:38.066Z,6.22
2019-03-06T03:56:38.059Z,6.19
2019-03-06T03:57:38.053Z,6.28
2019-03-06T03:58:38.047Z,6.24
2019-03-06T03:59:38.039Z,6.22
2019-03-06T04:00:38.033Z,6.20
2019-03-06T04:01:38.027Z,6.26
2019-03-06T04:02:38.019Z,6.30
2019-03-06T04:03:38.015Z,6.22
2019-03-06T04:04:38.007Z,6.22
2019-03-06T04:05:37.999Z,6.24
2019-03-06T04:06:37.995Z,6.26
2019-03-06T04:07:37.989Z,6.28
2019-03-06T04:08:37.978Z,6.24
2019-03-06T04:09:37.973Z,6.27
2019-03-06T04:10:37.986Z,6.27
2019-03-06T04:11:37.960Z,6.28
2019-03-06T04:12:37.964Z,6.22
2019-03-06T04:13:38.018Z,6.24
2019-03-06T04:14:38.039Z,6.20
2019-03-06T04:15:37.931Z,6.31
2019-03-06T04:16:37.926Z,6.22
2019-03-06T04:17:37.919Z,6.28
2019-03-06T04:18:37.914Z,6.31
2019-03-06T04:19:37.907Z,6.26
2019-03-06T04:20:37.902Z,6.22
2019-03-06T04:21:37.894Z,6.28
2019-03-06T04:22:37.889Z,6.19
2019-03-06T04:23:37.881Z,6.26
2019-03-06T04:24:37.874Z,6.27
2019-03-06T04:25:37.869Z,6.28
2019-03-06T04:26:37.861Z,6.27
2019-03-06T04:27:37.854Z,6.27
2019-03-06T04:28:37.847Z,6.24
2019-03-06T04:29:37.841Z,6.27
2019-03-06T04:30:37.835Z,6.26
2019-03-06T04:31:37.826Z,6.41
2019-03-06T04:32:37.820Z,6.31
2019-03-06T04:33:37.814Z,6.45
2019-03-06T04:34:37.807Z,6.36
2019-03-06T04:35:37.800Z,6.35
2019-03-06T04:36:37.795Z,6.35
2019-03-06T04:37:37.787Z,6.28
2019-03-06T04:38:37.780Z,6.38
2019-03-06T04:39:37.774Z,6.48
2019-03-06T04:40:37.768Z,6.31
2019-03-06T04:41:37.761Z,6.42
2019-03-06T04:42:37.757Z,6.45
2019-03-06T04:43:37.748Z,6.49
2019-03-06T04:44:37.741Z,6.45
2019-03-06T04:45:37.735Z,6.51
2019-03-06T04:46:37.732Z,6.42
2019-03-06T04:47:37.725Z,6.56
2019-03-06T04:48:37.716Z,6.56
2019-03-06T04:49:37.709Z,6.52
2019-03-06T04:50:37.705Z,6.46
2019-03-06T04:51:37.696Z,6.48
2019-03-06T04:52:37.690Z,6.54
2019-03-06T04:53:37.684Z,6.54
2019-03-06T04:54:37.677Z,6.56
2019-03-06T04:55:37.670Z,6.51
2019-03-06T04:56:37.668Z,6.56
2019-03-06T04:57:37.658Z,6.48
2019-03-06T04:58:37.652Z,6.60
2019-03-06T04:59:37.646Z,6.48
2019-03-06T05:00:37.639Z,6.59
2019-03-06T05:01:37.631Z,6.60
2019-03-06T05:02:37.625Z,6.60
2019-03-06T05:03:37.619Z,6.57
2019-03-06T05:04:37.613Z,6.57
2019-03-06T05:05:37.605Z,6.52
2019-03-06T05:06:37.600Z,6.60
2019-03-06T05:07:37.592Z,6.56
2019-03-06T05:08:37.586Z,6.59
2019-03-06T05:09:37.580Z,6.62
2019-03-06T05:10:37.574Z,6.60
2019-03-06T05:11:37.567Z,6.60
2019-03-06T05:12:37.562Z,6.59
2019-03-06T05:13:37.556Z,6.54
2019-03-06T05:14:37.548Z,6.62
2019-03-06T05:15:37.541Z,6.49
2019-03-06T05:16:37.535Z,6.57
2019-03-06T05:17:37.529Z,6.60
2019-03-06T05:18:37.523Z,6.62
2019-03-06T05:19:37.515Z,6.56
2019-03-06T05:20:37.510Z,6.66
2019-03-06T05:21:37.504Z,6.59
2019-03-06T05:22:37.496Z,6.57
2019-03-06T05:23:37.490Z,6.63
2019-03-06T05:24:37.485Z,6.54
2019-03-06T05:25:37.480Z,6.66
2019-03-06T05:26:37.471Z,6.54
2019-03-06T05:27:37.463Z,6.57
2019-03-06T05:28:37.458Z,6.64
2019-03-06T05:29:37.452Z,6.64
2019-03-06T05:30:37.447Z,6.69
2019-03-06T05:31:37.439Z,6.70
2019-03-06T05:32:37.434Z,6.63
2019-03-06T05:33:37.428Z,6.69
2019-03-06T05:34:37.428Z,6.64
2019-03-06T05:35:37.412Z,6.70
2019-03-06T05:36:37.417Z,6.66
2019-03-06T05:37:37.401Z,6.62
2019-03-06T05:38:37.395Z,6.70
2019-03-06T05:39:37.386Z,6.66
2019-03-06T05:40:37.380Z,6.64
2019-03-06T05:41:37.375Z,6.64
2019-03-06T05:42:37.370Z,6.77
2019-03-06T05:43:37.362Z,6.77
2019-03-06T05:44:37.355Z,6.75
2019-03-06T05:45:37.350Z,6.74
2019-03-06T05:46:37.345Z,6.77
2019-03-06T05:47:37.337Z,6.78
2019-03-06T05:48:37.330Z,6.72
2019-03-06T05:49:37.323Z,6.77
2019-03-06T05:50:37.321Z,6.81
2019-03-06T05:51:37.311Z,6.79
2019-03-06T05:52:37.305Z,6.79
2019-03-06T05:53:37.297Z,6.74
2019-03-06T05:54:37.291Z,6.82
2019-03-06T05:55:37.286Z,6.75
2019-03-06T05:56:37.279Z,6.87
2019-03-06T05:57:37.272Z,6.82
2019-03-06T05:58:37.267Z,6.77
2019-03-06T05:59:37.273Z,6.82
2019-03-06T06:00:37.256Z,6.87
2019-03-06T06:01:37.247Z,6.82
2019-03-06T06:02:37.241Z,6.89
2019-03-06T06:03:37.235Z,6.84
2019-03-06T06:04:37.228Z,6.88
2019-03-06T06:05:37.222Z,6.81
2019-03-06T06:06:37.215Z,6.78
2019-03-06T06:07:37.209Z,6.84
2019-03-06T06:08:37.203Z,6.81
2019-03-06T06:09:37.197Z,6.84
2019-03-06T06:10:37.192Z,6.82
2019-03-06T06:11:37.184Z,6.88
2019-03-06T06:12:37.180Z,6.87
2019-03-06T06:13:37.174Z,6.92
2019-03-06T06:14:37.165Z,6.78
2019-03-06T06:15:37.160Z,6.92
2019-03-06T06:16:37.152Z,6.85
2019-03-06T06:17:37.146Z,6.84
2019-03-06T06:18:37.138Z,6.84
2019-03-06T06:19:37.135Z,6.82
2019-03-06T06:20:37.126Z,6.87
2019-03-06T06:21:37.118Z,6.77
2019-03-06T06:22:37.112Z,6.77
2019-03-06T06:23:37.107Z,6.77
2019-03-06T06:24:37.099Z,6.84
2019-03-06T06:25:37.095Z,6.82
2019-03-06T06:26:37.089Z,6.85
2019-03-06T06:27:37.079Z,6.81
2019-03-06T06:28:37.075Z,6.81
2019-03-06T06:29:37.067Z,6.81
2019-03-06T06:30:37.061Z,6.82
2019-03-06T06:31:37.054Z,6.79
2019-03-06T06:32:37.051Z,6.81
2019-03-06T06:33:37.043Z,6.81
2019-03-06T06:34:37.035Z,6.79
2019-03-06T06:35:37.031Z,6.87
2019-03-06T06:36:37.025Z,6.85
2019-03-06T06:37:37.020Z,6.88
2019-03-06T06:38:37.574Z,6.87
2019-03-06T06:39:37.005Z,6.88
2019-03-06T06:40:36.997Z,6.87
2019-03-06T06:41:36.991Z,6.93
2019-03-06T06:42:36.985Z,6.93
2019-03-06T06:43:36.978Z,6.92
2019-03-06T06:44:36.972Z,6.96
2019-03-06T06:45:36.965Z,6.88
2019-03-06T06:46:36.968Z,7.00
2019-03-06T06:47:36.953Z,6.97
2019-03-06T06:48:36.947Z,6.99
2019-03-06T06:49:36.941Z,7.06
2019-03-06T06:50:36.933Z,7.13
2019-03-06T06:51:36.927Z,7.20
2019-03-06T06:52:36.932Z,7.18
2019-03-06T06:53:36.914Z,7.24
2019-03-06T06:54:36.926Z,7.32
2019-03-06T06:55:36.901Z,7.39
2019-03-06T06:56:36.898Z,7.42
2019-03-06T06:57:36.889Z,7.42
2019-03-06T06:58:36.884Z,7.53
2019-03-06T06:59:36.876Z,7.47
2019-03-06T07:00:36.870Z,7.56
2019-03-06T07:01:36.864Z,7.58
2019-03-06T07:02:36.860Z,7.58
2019-03-06T07:03:36.852Z,7.72
2019-03-06T07:04:36.846Z,7.69
2019-03-06T07:05:36.841Z,7.79
2019-03-06T07:06:36.839Z,7.69
2019-03-06T07:07:36.829Z,7.76
2019-03-06T07:08:36.820Z,7.85
2019-03-06T07:09:36.815Z,7.82
2019-03-06T07:10:36.811Z,7.83
2019-03-06T07:11:36.802Z,7.91
2019-03-06T07:12:36.797Z,8.01
2019-03-06T07:13:36.792Z,7.98
2019-03-06T07:14:36.784Z,8.05
2019-03-06T07:15:36.779Z,8.06
2019-03-06T07:16:36.772Z,8.05
2019-03-06T07:17:36.765Z,8.15
2019-03-06T07:18:36.759Z,8.10
2019-03-06T07:19:36.752Z,8.16
2019-03-06T07:20:36.746Z,8.23
2019-03-06T07:21:36.741Z,8.20
2019-03-06T07:22:36.736Z,8.23
2019-03-06T07:23:36.729Z,8.31
2019-03-06T07:24:36.722Z,8.26
2019-03-06T07:25:36.718Z,8.18
2019-03-06T07:26:36.710Z,8.33
2019-03-06T07:27:36.704Z,8.31
2019-03-06T07:28:36.700Z,8.30
2019-03-06T07:29:36.692Z,8.30
2019-03-06T07:30:36.686Z,8.37
2019-03-06T07:31:36.680Z,8.26
2019-03-06T07:32:36.675Z,8.27
2019-03-06T07:33:36.669Z,8.41
2019-03-06T07:34:36.662Z,8.42
2019-03-06T07:35:36.755Z,8.41
2019-03-06T07:36:36.651Z,8.45
2019-03-06T07:37:36.644Z,8.38
2019-03-06T07:38:36.639Z,8.52
2019-03-06T07:39:36.632Z,8.48
2019-03-06T07:40:36.686Z,8.49
2019-03-06T07:41:36.620Z,8.52
2019-03-06T07:42:36.674Z,8.49
2019-03-06T07:43:36.608Z,8.61
2019-03-06T07:44:36.602Z,8.60
2019-03-06T07:45:36.596Z,8.64
2019-03-06T07:46:36.591Z,8.63
2019-03-06T07:47:36.586Z,8.69
2019-03-06T07:48:36.581Z,8.67
2019-03-06T07:49:44.631Z,8.69
2019-03-06T07:50:36.568Z,8.64
2019-03-06T07:51:36.562Z,8.81
2019-03-06T07:52:36.557Z,8.88
2019-03-06T07:53:36.550Z,8.82
2019-03-06T07:54:36.544Z,8.92
2019-03-06T07:55:36.539Z,8.82
2019-03-06T07:56:36.537Z,8.82
2019-03-06T07:57:36.527Z,8.88
2019-03-06T07:58:36.521Z,8.95
2019-03-06T07:59:36.517Z,8.97
2019-03-06T08:00:36.511Z,8.95
2019-03-06T08:01:36.504Z,9.03
2019-03-06T08:02:36.499Z,9.00
2019-03-06T08:03:36.491Z,9.06
2019-03-06T08:04:36.514Z,9.11
2019-03-06T08:05:36.484Z,9.04
2019-03-06T08:06:36.479Z,9.06
2019-03-06T08:07:36.470Z,9.21
2019-03-06T08:08:36.463Z,9.21
2019-03-06T08:09:36.462Z,9.23
2019-03-06T08:10:36.453Z,9.26
2019-03-06T08:11:36.445Z,9.29
2019-03-06T08:12:36.440Z,9.32
2019-03-06T08:13:36.435Z,9.44
2019-03-06T08:14:36.431Z,9.36
2019-03-06T08:15:36.423Z,9.47
2019-03-06T08:16:36.418Z,9.55
2019-03-06T08:17:36.413Z,9.48
2019-03-06T08:18:36.407Z,9.54
2019-03-06T08:19:36.402Z,9.46
2019-03-06T08:20:36.396Z,9.50
2019-03-06T08:21:36.392Z,9.50
2019-03-06T08:22:36.394Z,9.56
2019-03-06T08:23:36.380Z,9.54
2019-03-06T08:24:36.375Z,9.62
2019-03-06T08:25:36.369Z,9.59
2019-03-06T08:26:36.364Z,9.59
2019-03-06T08:27:36.361Z,9.64
2019-03-06T08:28:36.353Z,9.55
2019-03-06T08:29:36.348Z,9.58
2019-03-06T08:30:36.341Z,9.55
2019-03-06T08:31:36.337Z,9.56
2019-03-06T08:32:36.332Z,9.68
2019-03-06T08:33:36.326Z,9.64
2019-03-06T08:34:36.321Z,9.64
2019-03-06T08:35:36.318Z,9.68
2019-03-06T08:36:36.310Z,9.72
2019-03-06T08:37:36.305Z,9.64
2019-03-06T08:38:36.301Z,9.62
2019-03-06T08:39:36.295Z,9.64
2019-03-06T08:40:36.293Z,9.77
2019-03-06T08:41:36.284Z,9.66
2019-03-06T08:42:36.280Z,9.73
2019-03-06T08:43:36.277Z,9.72
2019-03-06T08:44:36.268Z,9.80
2019-03-06T08:45:36.264Z,9.74
2019-03-06T08:46:36.259Z,9.80
2019-03-06T08:47:36.252Z,9.80
2019-03-06T08:48:36.249Z,9.80
2019-03-06T08:49:36.246Z,9.86
2019-03-06T08:50:36.239Z,9.83
2019-03-06T08:51:36.231Z,9.86
2019-03-06T08:52:36.228Z,9.91
2019-03-06T08:53:36.224Z,9.94
2019-03-06T08:54:36.217Z,10.02
2019-03-06T08:55:36.215Z,9.98
2019-03-06T08:56:36.207Z,9.99
2019-03-06T08:57:36.202Z,10.07
2019-03-06T08:58:36.198Z,10.09
2019-03-06T08:59:36.191Z,10.09
2019-03-06T09:00:36.193Z,10.09
2019-03-06T09:01:36.184Z,10.12
2019-03-06T09:02:36.176Z,10.12
2019-03-06T09:03:36.171Z,10.17
2019-03-06T09:04:36.173Z,10.09
2019-03-06T09:05:36.163Z,10.13
2019-03-06T09:06:36.158Z,10.22
2019-03-06T09:07:36.152Z,10.22
2019-03-06T09:08:36.148Z,10.26
2019-03-06T09:09:36.147Z,10.31
2019-03-06T09:10:36.139Z,10.37
2019-03-06T09:11:36.133Z,10.31
2019-03-06T09:12:36.126Z,10.35
2019-03-06T09:13:36.122Z,10.37
2019-03-06T09:14:36.117Z,10.38
2019-03-06T09:15:36.112Z,10.35
2019-03-06T09:16:36.108Z,10.41
2019-03-06T09:17:36.103Z,10.53
2019-03-06T09:18:36.098Z,10.57
2019-03-06T09:19:36.102Z,10.71
2019-03-06T09:20:39.986Z,10.63
2019-03-06T09:21:36.085Z,10.78
2019-03-06T09:22:36.082Z,10.74
2019-03-06T09:23:36.073Z,10.69
2019-03-06T09:24:36.070Z,10.81
2019-03-06T09:25:36.066Z,10.82
2019-03-06T09:26:36.060Z,10.92
2019-03-06T09:27:36.056Z,10.92
2019-03-06T09:28:36.054Z,10.92
2019-03-06T09:29:36.046Z,10.99
2019-03-06T09:30:36.046Z,11.08
2019-03-06T09:31:36.036Z,11.07
2019-03-06T09:32:36.032Z,11.14
2019-03-06T09:33:36.029Z,11.22
2019-03-06T09:34:36.025Z,11.32
2019-03-06T09:35:36.020Z,11.35
2019-03-06T09:36:36.016Z,11.40
2019-03-06T09:37:36.011Z,11.35
2019-03-06T09:38:36.009Z,11.52
2019-03-06T09:39:36.001Z,11.65
2019-03-06T09:40:35.999Z,11.68
2019-03-06T09:41:35.994Z,11.84
2019-03-06T09:42:35.991Z,11.83
2019-03-06T09:43:35.997Z,11.87
2019-03-06T09:44:35.982Z,11.91
2019-03-06T09:45:35.978Z,11.87
2019-03-06T09:46:35.975Z,12.00
2019-03-06T09:47:35.975Z,11.90
2019-03-06T09:48:35.967Z,11.94
2019-03-06T09:49:35.965Z,11.95
2019-03-06T09:50:35.959Z,11.97
2019-03-06T09:51:35.957Z,12.09
2019-03-06T09:52:35.952Z,12.17
2019-03-06T09:53:35.950Z,12.13
2019-03-06T09:54:35.945Z,12.25
2019-03-06T09:55:35.941Z,12.25
2019-03-06T09:56:35.938Z,12.29
2019-03-06T09:57:35.933Z,12.43
2019-03-06T09:58:35.931Z,12.57
2019-03-06T09:59:35.927Z,12.49
2019-03-06T10:00:35.923Z,12.57
2019-03-06T10:01:35.923Z,12.54
2019-03-06T10:02:35.918Z,12.57
2019-03-06T10:03:35.915Z,12.58
2019-03-06T10:04:35.909Z,12.57
2019-03-06T10:05:35.911Z,12.58
2019-03-06T10:06:35.903Z,12.55
2019-03-06T10:07:35.899Z,12.79
2019-03-06T10:08:35.895Z,12.79
2019-03-06T10:09:35.892Z,12.82
2019-03-06T10:10:35.888Z,12.94
2019-03-06T10:11:35.885Z,13.05
2019-03-06T10:12:35.883Z,13.31
2019-03-06T10:13:41.704Z,13.33
2019-03-06T10:14:35.875Z,13.47
2019-03-06T10:15:35.886Z,13.62
2019-03-06T10:16:35.869Z,13.71
2019-03-06T10:17:35.868Z,13.74
2019-03-06T10:18:35.864Z,13.62
2019-03-06T10:19:35.861Z,13.63
2019-03-06T10:20:35.859Z,13.74
2019-03-06T10:21:35.859Z,13.77
2019-03-06T10:22:35.855Z,13.68
2019-03-06T10:23:35.852Z,13.62
2019-03-06T10:24:35.849Z,13.62
2019-03-06T10:25:35.847Z,13.62
2019-03-06T10:26:35.854Z,13.44
2019-03-06T10:27:35.843Z,13.28
2019-03-06T10:28:36.679Z,13.28
2019-03-06T10:29:35.841Z,13.23
2019-03-06T10:30:35.836Z,13.22
2019-03-06T10:31:35.834Z,13.16
2019-03-06T10:32:35.832Z,13.16
2019-03-06T10:33:35.831Z,13.12
2019-03-06T10:34:35.828Z,13.12
2019-03-06T10:35:35.824Z,13.03
2019-03-06T10:36:35.829Z,13.01
2019-03-06T10:37:35.821Z,13.13
2019-03-06T10:38:35.819Z,13.08
2019-03-06T10:39:35.816Z,13.15
2019-03-06T10:40:35.815Z,13.09
2019-03-06T10:41:35.811Z,13.12
2019-03-06T10:42:35.811Z,13.11
2019-03-06T10:43:35.806Z,13.08
2019-03-06T10:44:35.803Z,13.04
2019-03-06T10:45:42.008Z,12.97
2019-03-06T10:46:35.798Z,12.98
2019-03-06T10:47:35.795Z,12.98
2019-03-06T10:48:35.793Z,12.97
2019-03-06T10:49:35.790Z,13.04
2019-03-06T10:50:35.788Z,13.18
2019-03-06T10:51:35.783Z,13.13
2019-03-06T10:52:35.782Z,13.18
2019-03-06T10:53:41.586Z,13.18
2019-03-06T10:54:44.318Z,13.11
2019-03-06T10:55:35.773Z,13.22
2019-03-06T10:56:35.772Z,13.22
2019-03-06T10:57:35.769Z,13.33
2019-03-06T10:58:35.765Z,13.35
2019-03-06T10:59:35.765Z,13.35
2019-03-06T11:00:35.760Z,13.39
2019-03-06T11:01:35.757Z,13.39
2019-03-06T11:02:35.755Z,13.56
2019-03-06T11:03:35.752Z,13.63
2019-03-06T11:04:35.749Z,13.79
2019-03-06T11:05:35.748Z,13.87
2019-03-06T11:06:35.743Z,13.86
2019-03-06T11:07:35.744Z,13.90
2019-03-06T11:08:35.738Z,13.95
2019-03-06T11:09:35.738Z,13.96
2019-03-06T11:10:35.734Z,13.93
2019-03-06T11:11:35.731Z,13.99
2019-03-06T11:12:35.730Z,14.15
2019-03-06T11:13:35.727Z,14.35
2019-03-06T11:14:35.728Z,14.36
2019-03-06T11:15:35.721Z,14.29
2019-03-06T11:16:36.760Z,14.43
2019-03-06T11:17:35.718Z,14.37
2019-03-06T11:18:35.716Z,14.30
2019-03-06T11:19:35.730Z,14.48
2019-03-06T11:20:35.715Z,14.51
2019-03-06T11:21:35.712Z,14.40
2019-03-06T11:22:35.710Z,14.35
2019-03-06T11:23:35.709Z,14.33
2019-03-06T11:24:35.705Z,14.37
2019-03-06T11:25:35.704Z,14.41
2019-03-06T11:26:35.703Z,14.54
2019-03-06T11:27:35.701Z,14.68
2019-03-06T11:28:35.698Z,14.72
2019-03-06T11:29:35.698Z,14.81
2019-03-06T11:30:35.695Z,14.94
2019-03-06T11:31:35.693Z,15.24
2019-03-06T11:32:35.692Z,15.35
2019-03-06T11:33:36.874Z,15.22
2019-03-06T11:34:35.691Z,15.00
2019-03-06T11:35:35.689Z,14.84
2019-03-06T11:36:35.687Z,14.85
2019-03-06T11:37:35.687Z,14.78
2019-03-06T11:38:35.685Z,14.77
2019-03-06T11:39:35.684Z,14.81
2019-03-06T11:40:35.685Z,14.85
2019-03-06T11:41:35.682Z,14.85
2019-03-06T11:42:35.681Z,14.73
2019-03-06T11:43:35.679Z,14.65
2019-03-06T11:44:35.678Z,14.65
2019-03-06T11:45:35.677Z,14.79
2019-03-06T11:46:35.676Z,14.65
2019-03-06T11:47:35.676Z,14.73
2019-03-06T11:48:35.675Z,14.79
2019-03-06T11:49:35.673Z,14.72
2019-03-06T11:50:40.876Z,14.72
2019-03-06T11:51:35.673Z,14.65
2019-03-06T11:52:35.670Z,14.66
2019-03-06T11:53:35.668Z,14.65
2019-03-06T11:54:35.669Z,14.77
2019-03-06T11:55:35.666Z,14.69
2019-03-06T11:56:35.664Z,14.72
2019-03-06T11:57:35.665Z,14.72
2019-03-06T11:58:35.662Z,14.62
2019-03-06T11:59:35.661Z,14.72
2019-03-06T12:00:35.659Z,14.73
2019-03-06T12:01:35.659Z,14.66
2019-03-06T12:02:35.656Z,14.55
2019-03-06T12:03:35.654Z,14.58
2019-03-06T12:04:35.653Z,14.53
2019-03-06T12:05:35.652Z,14.54
2019-03-06T12:06:35.652Z,14.53
2019-03-06T12:07:35.649Z,14.58
2019-03-06T12:08:35.653Z,14.55
2019-03-06T12:09:35.647Z,14.55
2019-03-06T12:10:35.645Z,14.58
2019-03-06T12:11:35.643Z,14.65
2019-03-06T12:12:35.641Z,14.73
2019-03-06T12:13:35.640Z,14.77
2019-03-06T12:14:35.638Z,14.78
2019-03-06T12:15:35.637Z,14.72
2019-03-06T12:16:41.634Z,14.94
2019-03-06T12:17:35.634Z,14.94
2019-03-06T12:18:35.633Z,14.94
2019-03-06T12:19:35.629Z,14.88
2019-03-06T12:20:35.629Z,14.99
2019-03-06T12:21:35.628Z,14.92
2019-03-06T12:22:35.628Z,14.99
2019-03-06T12:23:35.626Z,14.97
2019-03-06T12:24:35.623Z,14.99
2019-03-06T12:25:35.622Z,14.91
2019-03-06T12:26:35.621Z,14.92
2019-03-06T12:27:35.619Z,15.03
2019-03-06T12:28:35.620Z,14.89
2019-03-06T12:29:35.617Z,14.94
2019-03-06T12:30:35.615Z,15.02
2019-03-06T12:31:35.612Z,15.00
2019-03-06T12:32:35.613Z,14.99
2019-03-06T12:33:35.610Z,14.96
2019-03-06T12:34:35.611Z,14.92
2019-03-06T12:35:35.607Z,14.92
2019-03-06T12:36:36.171Z,14.99
2019-03-06T12:37:35.605Z,14.92
2019-03-06T12:38:35.606Z,15.04
2019-03-06T12:39:35.603Z,15.09
2019-03-06T12:40:35.602Z,15.11
2019-03-06T12:41:35.600Z,15.21
2019-03-06T12:42:35.599Z,15.25
2019-03-06T12:43:35.599Z,15.39
2019-03-06T12:44:35.602Z,15.36
2019-03-06T12:45:35.595Z,15.57
2019-03-06T12:46:35.594Z,15.59
2019-03-06T12:47:35.593Z,15.55
2019-03-06T12:48:35.591Z,15.54
2019-03-06T12:49:35.590Z,15.58
2019-03-06T12:50:35.590Z,15.59
2019-03-06T12:51:35.589Z,15.57
2019-03-06T12:52:35.586Z,15.58
2019-03-06T12:53:35.585Z,15.51
2019-03-06T12:54:35.589Z,15.55
2019-03-06T12:55:35.585Z,15.49
2019-03-06T12:56:35.582Z,15.57
2019-03-06T12:57:35.580Z,15.46
2019-03-06T12:58:35.580Z,15.44
2019-03-06T12:59:35.626Z,15.40
2019-03-06T13:00:35.577Z,15.46
2019-03-06T13:01:35.578Z,15.39
2019-03-06T13:02:35.576Z,15.39
2019-03-06T13:03:35.573Z,15.54
2019-03-06T13:04:35.573Z,15.62
2019-03-06T13:05:35.572Z,15.43
2019-03-06T13:06:35.573Z,15.57
2019-03-06T13:07:35.569Z,15.52
2019-03-06T13:08:35.569Z,15.57
2019-03-06T13:09:37.544Z,15.58